createdAt,value
2022-08-22T00:00:16.813Z,0.68
2022-08-22T00:03:00.779Z,0.80
2022-08-22T00:03:07.733Z,1.92
2022-08-22T00:03:10.388Z,0.90
2022-08-22T00:03:17.380Z,0.90
2022-08-22T00:05:57.477Z,1.20
2022-08-22T00:08:34.896Z,1.00
2022-08-22T00:11:10.006Z,1.10
2022-08-22T00:13:43.823Z,1.38
2022-08-22T00:16:21.817Z,1.05
2022-08-22T00:18:55.357Z,1.17
2022-08-22T00:21:29.616Z,1.13
2022-08-22T00:24:06.278Z,1.02
2022-08-22T00:26:45.314Z,0.88
2022-08-22T00:29:17.535Z,0.90
2022-08-22T00:31:52.013Z,1.00
2022-08-22T00:34:31.029Z,0.95
2022-08-22T00:37:07.420Z,1.02
2022-08-22T00:39:40.679Z,1.00
2022-08-22T00:42:33.520Z,0.93
2022-08-22T00:45:32.261Z,0.77
2022-08-22T00:48:21.343Z,1.37
2022-08-22T00:51:10.981Z,1.25
2022-08-22T00:56:35.232Z,0.85
2022-08-22T00:59:38.326Z,0.90
2022-08-22T01:02:19.051Z,1.02
2022-08-22T01:04:58.651Z,0.90
2022-08-22T01:13:12.906Z,0.73
2022-08-22T01:15:43.466Z,1.00
2022-08-22T01:18:50.280Z,1.02
2022-08-22T01:21:55.859Z,0.88
2022-08-22T01:25:26.065Z,1.00
2022-08-22T01:28:27.395Z,0.90
2022-08-22T01:31:39.055Z,1.15
2022-08-22T01:34:42.674Z,0.90
2022-08-22T01:37:43.515Z,0.95
2022-08-22T01:40:54.489Z,0.95
2022-08-22T01:43:59.419Z,1.45
2022-08-22T01:46:42.205Z,1.30
2022-08-22T01:49:19.062Z,0.93
2022-08-22T01:51:54.683Z,1.02
2022-08-22T01:54:31.272Z,1.20
2022-08-22T01:57:03.424Z,0.90
2022-08-22T01:59:42.380Z,1.20
2022-08-22T02:02:41.060Z,1.35
2022-08-22T02:05:20.283Z,0.98
2022-08-22T02:07:57.730Z,1.07
2022-08-22T02:10:43.678Z,1.23
2022-08-22T02:13:31.055Z,1.10
2022-08-22T02:16:09.892Z,1.20
2022-08-22T02:18:51.317Z,1.07
2022-08-22T02:21:25.655Z,0.90
2022-08-22T02:23:59.723Z,1.85
2022-08-22T02:26:38.979Z,1.10
2022-08-22T02:29:12.011Z,1.23
2022-08-22T02:31:45.501Z,1.17
2022-08-22T02:34:34.836Z,1.20
2022-08-22T02:37:11.743Z,1.60
2022-08-22T02:39:46.861Z,0.98
2022-08-22T02:42:23.652Z,1.10
2022-08-22T02:44:59.895Z,1.10
2022-08-22T02:47:35.914Z,1.70
2022-08-22T02:50:16.787Z,1.38
2022-08-22T02:52:57.764Z,1.20
2022-08-22T02:55:40.013Z,1.30
2022-08-22T02:58:15.663Z,1.60
2022-08-22T03:00:48.331Z,1.15
2022-08-22T03:03:22.691Z,1.42
2022-08-22T03:06:01.969Z,1.45
2022-08-22T03:08:33.601Z,1.40
2022-08-22T03:11:20.964Z,1.40
2022-08-22T03:13:57.102Z,1.33
2022-08-22T03:16:30.131Z,1.35
2022-08-22T03:19:05.504Z,1.33
2022-08-22T03:21:42.314Z,1.38
2022-08-22T03:24:16.714Z,1.63
2022-08-22T03:26:52.279Z,1.10
2022-08-22T03:29:25.598Z,1.33
2022-08-22T03:32:10.421Z,1.52
2022-08-22T03:34:39.659Z,1.30
2022-08-22T03:37:16.742Z,1.38
2022-08-22T03:39:58.861Z,1.05
2022-08-22T03:42:59.759Z,1.30
2022-08-22T03:45:49.489Z,1.30
2022-08-22T03:51:30.092Z,1.40
2022-08-22T03:54:33.056Z,1.40
2022-08-22T03:57:37.811Z,1.65
2022-08-22T04:00:36.308Z,2.67
2022-08-22T04:03:41.855Z,2.72
2022-08-22T04:06:56.572Z,2.80
2022-08-22T04:09:52.929Z,3.38
2022-08-22T04:12:59.359Z,2.85
2022-08-22T04:15:45.852Z,2.67
2022-08-22T04:18:47.312Z,2.70
2022-08-22T04:21:53.706Z,2.53
2022-08-22T04:24:43.794Z,2.63
2022-08-22T04:27:23.643Z,2.85
2022-08-22T04:29:55.784Z,2.83
2022-08-22T04:32:36.091Z,3.05
2022-08-22T04:35:10.122Z,3.03
2022-08-22T04:37:46.319Z,3.25
2022-08-22T04:40:23.134Z,2.42
2022-08-22T04:42:55.817Z,3.10
2022-08-22T04:45:30.823Z,3.15
2022-08-22T04:48:07.153Z,2.97
2022-08-22T04:50:43.336Z,3.72
2022-08-22T04:53:26.614Z,3.25
2022-08-22T04:56:07.537Z,3.30
2022-08-22T04:58:46.795Z,3.13
2022-08-22T05:01:19.257Z,3.60
2022-08-22T05:03:53.815Z,3.58
2022-08-22T05:06:25.547Z,3.10
2022-08-22T05:08:54.254Z,3.40
2022-08-22T05:11:25.012Z,3.60
2022-08-22T05:13:56.899Z,4.13
2022-08-22T05:16:32.328Z,3.55
2022-08-22T05:19:05.833Z,3.83
2022-08-22T05:21:38.451Z,3.58
2022-08-22T05:24:10.583Z,3.40
2022-08-22T05:26:42.183Z,3.67
2022-08-22T05:29:12.043Z,3.13
2022-08-22T05:34:17.207Z,2.97
2022-08-22T05:36:50.921Z,2.83
2022-08-22T05:39:21.875Z,2.63
2022-08-22T05:41:56.359Z,2.90
2022-08-22T05:44:27.234Z,2.78
2022-08-22T05:47:02.587Z,2.53
2022-08-22T05:49:38.946Z,2.65
2022-08-22T05:52:12.223Z,2.38
2022-08-22T05:54:49.541Z,2.92
2022-08-22T05:57:32.466Z,1.98
2022-08-22T06:00:08.768Z,4.88
2022-08-22T06:02:51.763Z,9.98
2022-08-22T06:05:25.781Z,13.52
2022-08-22T06:07:59.429Z,13.63
2022-08-22T06:10:32.584Z,15.07
2022-08-22T06:13:04.802Z,16.92
2022-08-22T06:15:45.632Z,15.53
2022-08-22T06:18:26.053Z,16.10
2022-08-22T06:20:58.932Z,13.82
2022-08-22T06:23:30.852Z,11.23
2022-08-22T06:26:01.344Z,9.48
2022-08-22T06:28:37.038Z,12.43
2022-08-22T06:31:06.615Z,11.75
2022-08-22T06:33:42.366Z,10.85
2022-08-22T06:36:31.886Z,9.50
2022-08-22T06:39:10.106Z,9.07
2022-08-22T06:41:42.411Z,8.77
2022-08-22T06:44:14.976Z,9.68
2022-08-22T06:46:47.503Z,11.02
2022-08-22T06:49:17.096Z,10.43
2022-08-22T06:51:47.815Z,10.07
2022-08-22T06:54:19.967Z,9.98
2022-08-22T06:56:51.460Z,8.02
2022-08-22T06:59:24.309Z,9.25
2022-08-22T07:01:57.007Z,8.30
2022-08-22T07:04:27.553Z,6.50
2022-08-22T07:07:00.740Z,4.03
2022-08-22T07:09:31.904Z,4.72
2022-08-22T07:12:02.916Z,3.70
2022-08-22T07:14:34.268Z,4.57
2022-08-22T07:17:05.069Z,3.92
2022-08-22T07:19:35.994Z,4.40
2022-08-22T07:22:14.900Z,3.92
2022-08-22T07:24:48.028Z,3.37
2022-08-22T07:27:38.403Z,3.40
2022-08-22T07:30:10.720Z,3.08
2022-08-22T07:32:48.112Z,3.13
2022-08-22T07:35:20.444Z,3.00
2022-08-22T07:37:57.753Z,2.90
2022-08-22T07:40:33.021Z,3.22
2022-08-22T07:43:08.531Z,3.05
2022-08-22T07:45:41.534Z,2.67
2022-08-22T07:48:25.602Z,2.90
2022-08-22T07:51:08.367Z,2.88
2022-08-22T07:53:43.039Z,2.90
2022-08-22T07:56:15.557Z,2.50
2022-08-22T07:58:46.502Z,2.33
2022-08-22T08:01:20.713Z,2.40
2022-08-22T08:03:54.953Z,2.60
2022-08-22T08:06:25.123Z,2.67
2022-08-22T08:08:55.829Z,2.72
2022-08-22T08:11:26.802Z,2.50
2022-08-22T08:13:59.033Z,2.53
2022-08-22T08:16:32.159Z,2.20
2022-08-22T08:19:02.575Z,2.20
2022-08-22T08:21:34.719Z,1.70
2022-08-22T08:24:07.552Z,1.75
2022-08-22T08:26:39.980Z,2.85
2022-08-22T08:29:08.287Z,2.33
2022-08-22T08:31:44.870Z,2.53
2022-08-22T08:34:19.670Z,2.03
2022-08-22T08:36:52.404Z,2.28
2022-08-22T08:39:28.624Z,1.95
2022-08-22T08:42:27.927Z,1.65
2022-08-22T08:45:23.365Z,1.73
2022-08-22T08:48:21.873Z,1.55
2022-08-22T08:51:04.163Z,1.58
2022-08-22T08:53:57.444Z,1.50
2022-08-22T08:56:37.003Z,1.63
2022-08-22T08:59:17.674Z,1.60
2022-08-22T09:05:47.267Z,2.00
2022-08-22T09:08:45.448Z,1.80
2022-08-22T09:11:52.488Z,1.58
2022-08-22T09:14:45.234Z,1.42
2022-08-22T09:17:39.043Z,1.30
2022-08-22T09:20:40.021Z,1.27
2022-08-22T09:23:53.332Z,1.30
2022-08-22T09:26:30.707Z,1.70
2022-08-22T09:29:07.198Z,1.42
2022-08-22T09:31:52.145Z,1.38
2022-08-22T09:34:28.630Z,1.23
2022-08-22T09:37:14.226Z,1.25
2022-08-22T09:39:53.355Z,1.20
2022-08-22T09:42:32.534Z,0.93
2022-08-22T09:45:42.928Z,1.10
2022-08-22T09:48:39.761Z,1.07
2022-08-22T09:51:32.614Z,0.98
2022-08-22T09:54:23.984Z,0.90
2022-08-22T09:57:08.203Z,0.80
2022-08-22T09:59:51.557Z,0.82
2022-08-22T10:02:34.480Z,0.80
2022-08-22T10:05:13.601Z,0.90
2022-08-22T10:08:14.718Z,0.77
2022-08-22T10:11:13.578Z,0.80
2022-08-22T10:13:57.351Z,0.70
2022-08-22T10:16:44.623Z,0.80
2022-08-22T10:19:21.203Z,0.80
2022-08-22T10:22:17.080Z,0.90
2022-08-22T10:24:53.874Z,0.70
2022-08-22T10:27:33.149Z,0.60
2022-08-22T10:30:09.181Z,0.70
2022-08-22T10:32:42.964Z,0.70
2022-08-22T10:35:21.006Z,0.63
2022-08-22T10:37:58.184Z,0.50
2022-08-22T10:40:31.009Z,0.60
2022-08-22T10:43:09.419Z,0.65
2022-08-22T10:45:41.270Z,0.60
2022-08-22T10:48:28.583Z,0.63
2022-08-22T10:51:08.725Z,0.55
2022-08-22T10:54:08.448Z,0.60
2022-08-22T10:56:43.860Z,0.50
2022-08-22T10:59:24.216Z,1.00
2022-08-22T11:02:05.868Z,0.70
2022-08-22T11:04:54.771Z,0.65
2022-08-22T11:07:48.539Z,0.63
2022-08-22T11:10:26.626Z,0.80
2022-08-22T11:13:12.848Z,1.10
2022-08-22T11:16:06.362Z,1.02
2022-08-22T11:19:02.128Z,0.82
2022-08-22T11:21:45.918Z,0.95
2022-08-22T11:24:53.937Z,0.90
2022-08-22T11:27:37.841Z,1.08
2022-08-22T11:30:11.002Z,0.80
2022-08-22T11:33:11.670Z,1.13
2022-08-22T11:35:47.445Z,1.13
2022-08-22T11:38:32.484Z,0.90
2022-08-22T11:41:06.622Z,1.00
2022-08-22T11:43:51.827Z,0.95
2022-08-22T11:46:29.324Z,0.70
2022-08-22T11:49:25.707Z,1.00
2022-08-22T11:52:04.256Z,1.13
2022-08-22T11:54:48.379Z,1.48
2022-08-22T11:57:30.707Z,1.13
2022-08-22T12:00:16.923Z,1.20
2022-08-22T12:03:26.245Z,0.80
2022-08-22T12:05:59.447Z,0.90
2022-08-22T12:09:00.926Z,0.70
2022-08-22T12:11:39.372Z,0.88
2022-08-22T12:14:17.541Z,0.73
2022-08-22T12:17:05.751Z,1.33
2022-08-22T12:20:05.611Z,0.80
2022-08-22T12:23:02.143Z,1.02
2022-08-22T12:25:51.684Z,0.98
2022-08-22T12:28:31.386Z,1.00
2022-08-22T12:31:12.359Z,0.80
2022-08-22T12:34:04.064Z,1.10
2022-08-22T12:37:00.501Z,1.00
2022-08-22T12:39:54.471Z,1.50
2022-08-22T12:42:32.435Z,1.20
2022-08-22T12:45:33.570Z,0.93
2022-08-22T12:48:14.442Z,0.88
2022-08-22T12:50:51.773Z,0.95
2022-08-22T12:53:46.601Z,1.10
2022-08-22T12:56:28.360Z,1.35
2022-08-22T12:59:19.731Z,1.55
2022-08-22T13:01:50.935Z,1.60
2022-08-22T13:04:32.740Z,1.50
2022-08-22T13:07:17.392Z,0.90
2022-08-22T13:09:49.904Z,1.48
2022-08-22T13:12:25.919Z,1.35
2022-08-22T13:15:00.703Z,1.50
2022-08-22T13:17:30.145Z,1.45
2022-08-22T13:20:08.505Z,0.90
2022-08-22T13:22:45.573Z,0.88
2022-08-22T13:25:25.954Z,1.05
2022-08-22T13:27:59.253Z,1.20
2022-08-22T13:30:33.349Z,0.90
2022-08-22T13:33:09.532Z,0.98
2022-08-22T13:35:51.658Z,1.05
2022-08-22T13:38:25.911Z,1.10
2022-08-22T13:40:56.900Z,1.13
2022-08-22T13:43:30.243Z,0.90
2022-08-22T13:46:01.885Z,1.17
2022-08-22T13:48:46.724Z,0.88
2022-08-22T13:51:21.773Z,1.08
2022-08-22T13:54:01.855Z,1.02
2022-08-22T13:56:36.757Z,1.10
2022-08-22T13:59:08.108Z,1.08
2022-08-22T14:01:46.993Z,1.10
2022-08-22T14:04:33.354Z,1.20
2022-08-22T14:07:25.478Z,1.15
2022-08-22T14:09:58.711Z,1.48
2022-08-22T14:12:33.708Z,1.23
2022-08-22T14:15:23.379Z,1.10
2022-08-22T14:18:03.370Z,1.20
2022-08-22T14:20:33.839Z,1.15
2022-08-22T14:23:08.029Z,1.30
2022-08-22T14:25:40.438Z,1.10
2022-08-22T14:28:21.532Z,0.88
2022-08-22T14:31:00.854Z,1.08
2022-08-22T14:33:34.988Z,0.90
2022-08-22T14:36:11.712Z,1.02
2022-08-22T14:38:48.100Z,1.40
2022-08-22T14:43:59.105Z,1.10
2022-08-22T14:46:34.624Z,1.08
2022-08-22T14:49:24.928Z,1.30
2022-08-22T14:52:00.392Z,1.85
2022-08-22T14:54:30.911Z,1.23
2022-08-22T14:57:03.018Z,1.20
2022-08-22T14:59:45.195Z,1.50
2022-08-22T15:02:17.388Z,1.27
2022-08-22T15:04:50.852Z,1.27
2022-08-22T15:07:24.822Z,1.23
2022-08-22T15:09:55.847Z,1.10
2022-08-22T15:12:29.171Z,1.05
2022-08-22T15:15:00.303Z,1.20
2022-08-22T15:17:39.886Z,1.08
2022-08-22T15:20:28.568Z,1.10
2022-08-22T15:23:01.702Z,1.33
2022-08-22T15:25:34.215Z,1.02
2022-08-22T15:28:14.190Z,1.10
2022-08-22T15:30:49.582Z,1.45
2022-08-22T15:33:25.282Z,1.42
2022-08-22T15:35:55.360Z,1.40
2022-08-22T15:38:32.190Z,1.00
2022-08-22T15:41:31.191Z,0.88
2022-08-22T15:44:30.603Z,1.30
2022-08-22T15:47:10.825Z,1.00
2022-08-22T15:49:58.214Z,1.30
2022-08-22T15:52:29.853Z,1.17
2022-08-22T15:55:22.013Z,0.90
2022-08-22T15:58:04.511Z,1.20
2022-08-22T16:00:43.426Z,1.05
2022-08-22T16:03:24.858Z,0.80
2022-08-22T16:05:56.276Z,1.25
2022-08-22T16:08:29.624Z,1.30
2022-08-22T16:11:24.057Z,1.27
2022-08-22T16:14:18.266Z,1.27
2022-08-22T16:17:03.494Z,1.42
2022-08-22T16:19:32.768Z,1.40
2022-08-22T16:25:06.705Z,1.50
2022-08-22T16:27:51.740Z,1.10
2022-08-22T16:30:33.308Z,1.30
2022-08-22T16:33:04.468Z,1.00
2022-08-22T16:36:25.756Z,1.02
2022-08-22T16:38:57.582Z,1.65
2022-08-22T16:41:29.962Z,1.52
2022-08-22T16:44:48.892Z,1.30
2022-08-22T16:47:20.398Z,1.20
2022-08-22T16:50:05.209Z,1.15
2022-08-22T16:53:08.612Z,1.05
2022-08-22T16:56:12.113Z,1.00
2022-08-22T16:59:19.558Z,0.93
2022-08-22T17:02:26.475Z,0.90
2022-08-22T17:05:10.849Z,1.35
2022-08-22T17:07:54.921Z,1.17
2022-08-22T17:10:39.499Z,0.88
2022-08-22T17:13:21.905Z,0.95
2022-08-22T17:16:08.004Z,1.00
2022-08-22T17:18:51.424Z,1.00
2022-08-22T17:21:26.844Z,1.20
2022-08-22T17:24:06.577Z,0.90
2022-08-22T17:26:55.303Z,1.17
2022-08-22T17:29:39.820Z,1.33
2022-08-22T17:32:17.774Z,1.15
2022-08-22T17:34:56.437Z,1.13
2022-08-22T17:37:36.869Z,1.15
2022-08-22T17:40:38.899Z,1.27
2022-08-22T17:43:48.873Z,1.08
2022-08-22T17:46:40.904Z,0.93
2022-08-22T17:49:23.103Z,1.10
2022-08-22T17:51:58.544Z,0.93
2022-08-22T17:54:36.007Z,1.15
2022-08-22T17:57:09.717Z,1.05
2022-08-22T17:59:47.327Z,0.80
2022-08-22T18:02:18.896Z,1.30
2022-08-22T18:04:52.695Z,1.00
2022-08-22T18:07:31.308Z,1.20
2022-08-22T18:10:06.032Z,1.65
2022-08-22T18:12:41.566Z,1.58
2022-08-22T18:15:20.119Z,1.70
2022-08-22T18:17:53.563Z,1.80
2022-08-22T18:20:28.632Z,1.42
2022-08-22T18:23:01.760Z,1.30
2022-08-22T18:25:39.623Z,1.77
2022-08-22T18:28:15.064Z,1.88
2022-08-22T18:31:02.751Z,1.65
2022-08-22T18:33:37.370Z,1.67
2022-08-22T18:36:12.262Z,1.52
2022-08-22T18:38:49.162Z,1.38
2022-08-22T18:41:31.360Z,1.70
2022-08-22T18:44:01.117Z,1.60
2022-08-22T18:46:45.062Z,1.67
2022-08-22T18:49:30.136Z,1.73
2022-08-22T18:52:21.503Z,1.63
2022-08-22T18:55:15.570Z,1.42
2022-08-22T18:58:03.141Z,1.58
2022-08-22T19:00:49.193Z,1.70
2022-08-22T19:03:36.265Z,1.50
2022-08-22T19:06:36.739Z,1.42
2022-08-22T19:09:39.836Z,1.52
2022-08-22T19:12:20.703Z,1.52
2022-08-22T19:15:16.185Z,1.50
2022-08-22T19:17:59.247Z,1.48
2022-08-22T19:20:48.559Z,1.38
2022-08-22T19:23:49.671Z,1.58
2022-08-22T19:26:33.760Z,1.98
2022-08-22T19:29:10.142Z,1.50
2022-08-22T19:31:52.243Z,1.85
2022-08-22T19:34:39.678Z,1.10
2022-08-22T19:37:31.077Z,1.50
2022-08-22T19:40:05.615Z,1.45
2022-08-22T19:42:40.896Z,1.00
2022-08-22T19:45:21.299Z,1.27
2022-08-22T19:48:00.334Z,1.20
2022-08-22T19:50:35.020Z,1.45
2022-08-22T19:53:37.655Z,1.33
2022-08-22T19:56:18.864Z,1.40
2022-08-22T19:59:03.116Z,1.20
2022-08-22T20:01:56.256Z,1.13
2022-08-22T20:04:58.156Z,1.50
2022-08-22T20:07:35.653Z,1.40
2022-08-22T20:10:16.163Z,1.50
2022-08-22T20:13:01.067Z,1.63
2022-08-22T20:15:32.296Z,1.00
2022-08-22T20:21:01.703Z,1.38
2022-08-22T20:23:32.648Z,1.30
2022-08-22T20:26:01.255Z,1.55
2022-08-22T20:28:48.869Z,1.50
2022-08-22T20:31:23.086Z,1.27
2022-08-22T20:33:56.352Z,1.38
2022-08-22T20:36:28.884Z,1.10
2022-08-22T20:39:01.274Z,1.25
2022-08-22T20:41:35.596Z,1.17
2022-08-22T20:44:12.380Z,1.38
2022-08-22T20:46:57.593Z,1.25
2022-08-22T20:49:30.319Z,1.05
2022-08-22T20:52:02.947Z,1.05
2022-08-22T20:54:33.628Z,1.08
2022-08-22T20:57:04.616Z,1.15
2022-08-22T20:59:37.120Z,1.20
2022-08-22T21:02:14.568Z,1.10
2022-08-22T21:04:49.744Z,1.10
2022-08-22T21:07:30.955Z,1.25
2022-08-22T21:10:28.698Z,1.40
2022-08-22T21:13:07.348Z,1.10
2022-08-22T21:15:38.826Z,1.40
2022-08-22T21:18:07.520Z,1.50
2022-08-22T21:20:38.518Z,1.20
2022-08-22T21:23:13.628Z,1.58
2022-08-22T21:25:56.649Z,1.95
2022-08-22T21:28:33.824Z,1.83
2022-08-22T21:31:13.088Z,1.85
2022-08-22T21:33:50.967Z,1.70
2022-08-22T21:36:22.197Z,1.77
2022-08-22T21:38:56.056Z,1.73
2022-08-22T21:41:30.141Z,1.50
2022-08-22T21:44:17.496Z,1.60
2022-08-22T21:46:46.108Z,1.33
2022-08-22T21:49:23.095Z,1.52
2022-08-22T21:51:51.903Z,1.40
2022-08-22T21:54:23.447Z,1.20
2022-08-22T21:56:53.060Z,1.52
2022-08-22T22:01:53.799Z,1.33
2022-08-22T22:04:23.724Z,1.48
2022-08-22T22:06:51.920Z,1.00
2022-08-22T22:09:21.618Z,1.15
2022-08-22T22:11:50.225Z,1.20
2022-08-22T22:14:18.294Z,1.10
2022-08-22T22:16:46.421Z,1.52
2022-08-22T22:19:15.173Z,1.50
2022-08-22T22:21:43.275Z,1.27
2022-08-22T22:24:11.355Z,1.40
2022-08-22T22:26:40.913Z,1.38
2022-08-22T22:34:06.843Z,1.20
2022-08-22T22:36:35.596Z,1.65
2022-08-22T22:39:05.571Z,1.27
2022-08-22T22:41:33.747Z,1.10
2022-08-22T22:44:03.266Z,1.00
2022-08-22T22:48:59.403Z,1.30
2022-08-22T22:51:27.654Z,1.00
2022-08-22T22:53:57.233Z,1.25
2022-08-22T22:58:59.026Z,1.08
2022-08-22T23:01:35.943Z,1.17
2022-08-22T23:04:05.928Z,0.90
2022-08-22T23:06:34.373Z,1.23
2022-08-22T23:09:02.544Z,1.13
2022-08-22T23:11:31.740Z,1.33
2022-08-22T23:13:59.840Z,1.25
2022-08-22T23:16:32.940Z,1.48
2022-08-22T23:19:09.055Z,1.15
2022-08-22T23:21:37.276Z,1.25
2022-08-22T23:24:06.574Z,1.00
2022-08-22T23:26:34.795Z,1.33
2022-08-22T23:29:06.141Z,1.08
2022-08-22T23:31:36.509Z,1.23
2022-08-22T23:34:09.100Z,1.13
2022-08-22T23:36:38.315Z,1.40
2022-08-22T23:39:08.856Z,1.10
2022-08-22T23:41:38.046Z,1.23
2022-08-22T23:44:08.481Z,1.35
2022-08-22T23:46:42.509Z,1.50
2022-08-22T23:49:12.839Z,1.13
2022-08-22T23:51:41.880Z,1.20
2022-08-22T23:54:10.000Z,1.33
2022-08-22T23:56:40.744Z,1.60
2022-08-22T23:59:11.597Z,1.35
